sensor_id;sensor_type;location;lat;lon;timestamp;P1;durP1;ratioP1;P2;durP2;ratioP2
50683;SDS011;36654;45.042;38.994;2022-11-04T00:01:48;30.83;;;15.65;;
50683;SDS011;36654;45.042;38.994;2022-11-04T00:04:15;29.33;;;15.05;;
50683;SDS011;36654;45.042;38.994;2022-11-04T00:06:42;26.45;;;14.95;;
50683;SDS011;36654;45.042;38.994;2022-11-04T00:09:10;25.70;;;15.15;;
50683;SDS011;36654;45.042;38.994;2022-11-04T00:11:38;26.45;;;14.60;;
50683;SDS011;36654;45.042;38.994;2022-11-04T00:14:22;27.40;;;13.57;;
50683;SDS011;36654;45.042;38.994;2022-11-04T00:16:48;23.85;;;13.98;;
50683;SDS011;36654;45.042;38.994;2022-11-04T00:19:32;26.42;;;14.27;;
50683;SDS011;36654;45.042;38.994;2022-11-04T00:22:18;22.23;;;13.27;;
50683;SDS011;36654;45.042;38.994;2022-11-04T00:25:03;24.42;;;14.18;;
50683;SDS011;36654;45.042;38.994;2022-11-04T00:27:47;26.25;;;14.93;;
50683;SDS011;36654;45.042;38.994;2022-11-04T00:30:31;30.88;;;14.93;;
50683;SDS011;36654;45.042;38.994;2022-11-04T00:32:57;26.02;;;14.93;;
50683;SDS011;36654;45.042;38.994;2022-11-04T00:35:47;20.00;;;11.85;;
50683;SDS011;36654;45.042;38.994;2022-11-04T00:38:14;25.83;;;14.02;;
50683;SDS011;36654;45.042;38.994;2022-11-04T00:40:40;24.42;;;14.13;;
50683;SDS011;36654;45.042;38.994;2022-11-04T00:43:06;27.73;;;14.73;;
50683;SDS011;36654;45.042;38.994;2022-11-04T00:45:31;26.45;;;14.35;;
50683;SDS011;36654;45.042;38.994;2022-11-04T00:47:57;25.77;;;13.45;;
50683;SDS011;36654;45.042;38.994;2022-11-04T00:50:23;24.95;;;14.35;;
50683;SDS011;36654;45.042;38.994;2022-11-04T00:52:48;24.73;;;14.23;;
50683;SDS011;36654;45.042;38.994;2022-11-04T00:55:14;20.02;;;12.05;;
50683;SDS011;36654;45.042;38.994;2022-11-04T00:57:39;26.02;;;13.95;;
50683;SDS011;36654;45.042;38.994;2022-11-04T01:00:05;22.77;;;12.88;;
50683;SDS011;36654;45.042;38.994;2022-11-04T01:02:31;21.02;;;11.82;;
50683;SDS011;36654;45.042;38.994;2022-11-04T01:04:57;24.83;;;13.00;;
50683;SDS011;36654;45.042;38.994;2022-11-04T01:07:22;29.02;;;14.55;;
50683;SDS011;36654;45.042;38.994;2022-11-04T01:09:48;25.30;;;13.45;;
50683;SDS011;36654;45.042;38.994;2022-11-04T01:12:14;23.88;;;13.85;;
50683;SDS011;36654;45.042;38.994;2022-11-04T01:14:41;25.67;;;14.05;;
50683;SDS011;36654;45.042;38.994;2022-11-04T01:17:07;28.52;;;13.35;;
50683;SDS011;36654;45.042;38.994;2022-11-04T01:19:33;22.73;;;13.70;;
50683;SDS011;36654;45.042;38.994;2022-11-04T01:21:58;25.88;;;14.18;;
50683;SDS011;36654;45.042;38.994;2022-11-04T01:24:24;29.60;;;15.00;;
50683;SDS011;36654;45.042;38.994;2022-11-04T01:26:50;29.52;;;15.55;;
50683;SDS011;36654;45.042;38.994;2022-11-04T01:29:15;26.02;;;15.63;;
50683;SDS011;36654;45.042;38.994;2022-11-04T01:31:41;27.30;;;15.13;;
50683;SDS011;36654;45.042;38.994;2022-11-04T01:34:07;28.40;;;15.52;;
50683;SDS011;36654;45.042;38.994;2022-11-04T01:36:33;25.27;;;14.65;;
50683;SDS011;36654;45.042;38.994;2022-11-04T01:38:59;31.80;;;15.18;;
50683;SDS011;36654;45.042;38.994;2022-11-04T01:41:28;27.95;;;15.73;;
50683;SDS011;36654;45.042;38.994;2022-11-04T01:43:57;31.15;;;16.10;;
50683;SDS011;36654;45.042;38.994;2022-11-04T01:46:44;30.67;;;16.35;;
50683;SDS011;36654;45.042;38.994;2022-11-04T01:52:14;30.55;;;16.42;;
50683;SDS011;36654;45.042;38.994;2022-11-04T01:54:49;27.20;;;15.48;;
50683;SDS011;36654;45.042;38.994;2022-11-04T01:57:18;33.28;;;16.50;;
50683;SDS011;36654;45.042;38.994;2022-11-04T01:59:50;32.17;;;18.80;;
50683;SDS011;36654;45.042;38.994;2022-11-04T02:02:16;32.70;;;17.60;;
50683;SDS011;36654;45.042;38.994;2022-11-04T02:04:42;33.60;;;17.70;;
50683;SDS011;36654;45.042;38.994;2022-11-04T02:07:08;31.52;;;16.65;;
50683;SDS011;36654;45.042;38.994;2022-11-04T02:09:35;34.63;;;18.08;;
50683;SDS011;36654;45.042;38.994;2022-11-04T02:12:02;30.25;;;18.52;;
50683;SDS011;36654;45.042;38.994;2022-11-04T02:14:47;40.35;;;19.40;;
50683;SDS011;36654;45.042;38.994;2022-11-04T02:19:57;35.63;;;19.10;;
50683;SDS011;36654;45.042;38.994;2022-11-04T02:22:34;33.47;;;17.95;;
50683;SDS011;36654;45.042;38.994;2022-11-04T02:30:20;36.13;;;19.13;;
50683;SDS011;36654;45.042;38.994;2022-11-04T02:45:46;36.65;;;16.35;;
50683;SDS011;36654;45.042;38.994;2022-11-04T02:48:18;33.95;;;17.23;;
50683;SDS011;36654;45.042;38.994;2022-11-04T02:56:09;33.63;;;17.05;;
50683;SDS011;36654;45.042;38.994;2022-11-04T02:58:39;32.75;;;17.52;;
50683;SDS011;36654;45.042;38.994;2022-11-04T03:01:13;34.17;;;17.83;;
50683;SDS011;36654;45.042;38.994;2022-11-04T03:03:46;32.35;;;17.73;;
50683;SDS011;36654;45.042;38.994;2022-11-04T03:06:16;33.65;;;18.45;;
50683;SDS011;36654;45.042;38.994;2022-11-04T03:08:47;36.20;;;18.77;;
50683;SDS011;36654;45.042;38.994;2022-11-04T03:11:17;37.47;;;17.73;;
50683;SDS011;36654;45.042;38.994;2022-11-04T03:16:20;33.67;;;17.15;;
50683;SDS011;36654;45.042;38.994;2022-11-04T03:21:30;32.75;;;16.55;;
50683;SDS011;36654;45.042;38.994;2022-11-04T03:23:59;30.80;;;16.20;;
50683;SDS011;36654;45.042;38.994;2022-11-04T03:26:32;33.58;;;17.10;;
50683;SDS011;36654;45.042;38.994;2022-11-04T03:29:06;33.90;;;16.52;;
50683;SDS011;36654;45.042;38.994;2022-11-04T03:31:49;32.03;;;17.98;;
50683;SDS011;36654;45.042;38.994;2022-11-04T03:34:28;30.10;;;16.08;;
50683;SDS011;36654;45.042;38.994;2022-11-04T03:36:55;31.75;;;15.98;;
50683;SDS011;36654;45.042;38.994;2022-11-04T03:39:21;30.88;;;16.58;;
50683;SDS011;36654;45.042;38.994;2022-11-04T03:41:56;33.03;;;17.85;;
50683;SDS011;36654;45.042;38.994;2022-11-04T03:44:26;32.40;;;16.63;;
50683;SDS011;36654;45.042;38.994;2022-11-04T03:46:53;28.88;;;15.20;;
50683;SDS011;36654;45.042;38.994;2022-11-04T03:49:22;31.63;;;16.85;;
50683;SDS011;36654;45.042;38.994;2022-11-04T03:51:49;29.98;;;16.83;;
50683;SDS011;36654;45.042;38.994;2022-11-04T03:54:16;29.63;;;16.10;;
50683;SDS011;36654;45.042;38.994;2022-11-04T03:57:05;28.17;;;16.33;;
50683;SDS011;36654;45.042;38.994;2022-11-04T04:07:49;34.17;;;18.02;;
50683;SDS011;36654;45.042;38.994;2022-11-04T04:13:16;36.85;;;17.88;;
50683;SDS011;36654;45.042;38.994;2022-11-04T04:15:56;32.70;;;17.27;;
50683;SDS011;36654;45.042;38.994;2022-11-04T04:19:15;34.10;;;16.98;;
50683;SDS011;36654;45.042;38.994;2022-11-04T04:21:45;30.27;;;15.73;;
50683;SDS011;36654;45.042;38.994;2022-11-04T04:24:16;31.27;;;15.05;;
50683;SDS011;36654;45.042;38.994;2022-11-04T04:29:46;28.35;;;15.43;;
50683;SDS011;36654;45.042;38.994;2022-11-04T04:32:14;28.67;;;15.07;;
50683;SDS011;36654;45.042;38.994;2022-11-04T04:34:41;28.15;;;15.18;;
50683;SDS011;36654;45.042;38.994;2022-11-04T04:37:08;36.83;;;16.65;;
50683;SDS011;36654;45.042;38.994;2022-11-04T04:39:49;30.55;;;16.02;;
50683;SDS011;36654;45.042;38.994;2022-11-04T04:42:37;27.40;;;14.70;;
50683;SDS011;36654;45.042;38.994;2022-11-04T04:45:24;29.77;;;14.30;;
50683;SDS011;36654;45.042;38.994;2022-11-04T04:48:00;29.17;;;15.05;;
50683;SDS011;36654;45.042;38.994;2022-11-04T04:50:26;33.05;;;15.25;;
50683;SDS011;36654;45.042;38.994;2022-11-04T04:55:22;27.23;;;15.38;;
50683;SDS011;36654;45.042;38.994;2022-11-04T04:57:47;33.85;;;17.15;;
50683;SDS011;36654;45.042;38.994;2022-11-04T05:00:14;32.17;;;15.63;;
50683;SDS011;36654;45.042;38.994;2022-11-04T05:02:43;32.88;;;17.02;;
50683;SDS011;36654;45.042;38.994;2022-11-04T05:05:09;41.42;;;16.92;;
50683;SDS011;36654;45.042;38.994;2022-11-04T05:07:35;27.67;;;14.00;;
50683;SDS011;36654;45.042;38.994;2022-11-04T05:10:01;26.65;;;12.50;;
50683;SDS011;36654;45.042;38.994;2022-11-04T05:12:27;24.60;;;12.93;;
50683;SDS011;36654;45.042;38.994;2022-11-04T05:15:12;23.23;;;12.13;;
50683;SDS011;36654;45.042;38.994;2022-11-04T05:17:38;22.05;;;11.85;;
50683;SDS011;36654;45.042;38.994;2022-11-04T05:20:04;22.27;;;11.60;;
50683;SDS011;36654;45.042;38.994;2022-11-04T05:22:30;22.73;;;9.98;;
50683;SDS011;36654;45.042;38.994;2022-11-04T05:24:55;23.33;;;10.13;;
50683;SDS011;36654;45.042;38.994;2022-11-04T05:27:21;25.67;;;10.63;;
50683;SDS011;36654;45.042;38.994;2022-11-04T05:29:49;20.60;;;9.70;;
50683;SDS011;36654;45.042;38.994;2022-11-04T05:32:14;19.38;;;10.07;;
50683;SDS011;36654;45.042;38.994;2022-11-04T05:34:40;21.20;;;9.70;;
50683;SDS011;36654;45.042;38.994;2022-11-04T05:37:06;17.85;;;9.90;;
50683;SDS011;36654;45.042;38.994;2022-11-04T05:39:31;22.25;;;10.20;;
50683;SDS011;36654;45.042;38.994;2022-11-04T05:41:57;18.55;;;9.45;;
50683;SDS011;36654;45.042;38.994;2022-11-04T05:44:22;14.90;;;8.70;;
50683;SDS011;36654;45.042;38.994;2022-11-04T05:46:48;17.98;;;9.48;;
50683;SDS011;36654;45.042;38.994;2022-11-04T05:49:14;20.90;;;10.63;;
50683;SDS011;36654;45.042;38.994;2022-11-04T05:51:39;20.35;;;11.27;;
50683;SDS011;36654;45.042;38.994;2022-11-04T05:54:05;22.80;;;10.07;;
50683;SDS011;36654;45.042;38.994;2022-11-04T05:56:30;22.80;;;11.07;;
50683;SDS011;36654;45.042;38.994;2022-11-04T05:58:56;19.52;;;10.43;;
50683;SDS011;36654;45.042;38.994;2022-11-04T06:01:23;19.73;;;10.25;;
50683;SDS011;36654;45.042;38.994;2022-11-04T06:03:55;17.88;;;9.85;;
50683;SDS011;36654;45.042;38.994;2022-11-04T06:06:22;22.48;;;9.95;;
50683;SDS011;36654;45.042;38.994;2022-11-04T06:08:49;20.42;;;10.40;;
50683;SDS011;36654;45.042;38.994;2022-11-04T06:11:15;22.45;;;9.48;;
50683;SDS011;36654;45.042;38.994;2022-11-04T06:13:41;21.42;;;9.85;;
50683;SDS011;36654;45.042;38.994;2022-11-04T06:16:07;17.25;;;10.45;;
50683;SDS011;36654;45.042;38.994;2022-11-04T06:18:32;18.73;;;10.57;;
50683;SDS011;36654;45.042;38.994;2022-11-04T06:23:42;21.52;;;10.75;;
50683;SDS011;36654;45.042;38.994;2022-11-04T06:26:09;23.60;;;10.05;;
50683;SDS011;36654;45.042;38.994;2022-11-04T06:28:36;21.63;;;9.93;;
50683;SDS011;36654;45.042;38.994;2022-11-04T06:31:03;21.08;;;10.95;;
50683;SDS011;36654;45.042;38.994;2022-11-04T06:33:30;21.25;;;10.20;;
50683;SDS011;36654;45.042;38.994;2022-11-04T06:35:57;20.35;;;10.75;;
50683;SDS011;36654;45.042;38.994;2022-11-04T06:38:24;27.95;;;11.90;;
50683;SDS011;36654;45.042;38.994;2022-11-04T06:40:50;21.75;;;11.20;;
50683;SDS011;36654;45.042;38.994;2022-11-04T06:43:16;21.52;;;11.35;;
50683;SDS011;36654;45.042;38.994;2022-11-04T06:45:42;22.02;;;11.52;;
50683;SDS011;36654;45.042;38.994;2022-11-04T06:48:07;23.13;;;12.35;;
50683;SDS011;36654;45.042;38.994;2022-11-04T06:50:33;23.48;;;12.50;;
50683;SDS011;36654;45.042;38.994;2022-11-04T06:52:59;20.35;;;10.88;;
50683;SDS011;36654;45.042;38.994;2022-11-04T06:55:24;24.80;;;12.38;;
50683;SDS011;36654;45.042;38.994;2022-11-04T06:57:50;22.80;;;11.18;;
50683;SDS011;36654;45.042;38.994;2022-11-04T07:00:16;21.42;;;10.93;;
50683;SDS011;36654;45.042;38.994;2022-11-04T07:02:42;20.33;;;11.27;;
50683;SDS011;36654;45.042;38.994;2022-11-04T07:05:08;18.55;;;11.77;;
50683;SDS011;36654;45.042;38.994;2022-11-04T07:07:33;20.75;;;12.23;;
50683;SDS011;36654;45.042;38.994;2022-11-04T07:09:59;22.50;;;12.85;;
50683;SDS011;36654;45.042;38.994;2022-11-04T07:12:25;22.80;;;12.63;;
50683;SDS011;36654;45.042;38.994;2022-11-04T07:14:50;21.63;;;12.35;;
50683;SDS011;36654;45.042;38.994;2022-11-04T07:17:16;21.08;;;12.20;;
50683;SDS011;36654;45.042;38.994;2022-11-04T07:19:42;20.52;;;12.25;;
50683;SDS011;36654;45.042;38.994;2022-11-04T07:22:08;22.05;;;11.23;;
50683;SDS011;36654;45.042;38.994;2022-11-04T07:24:33;21.65;;;12.00;;
50683;SDS011;36654;45.042;38.994;2022-11-04T07:26:59;24.30;;;12.35;;
50683;SDS011;36654;45.042;38.994;2022-11-04T07:29:25;19.42;;;11.52;;
50683;SDS011;36654;45.042;38.994;2022-11-04T07:31:50;22.45;;;11.20;;
50683;SDS011;36654;45.042;38.994;2022-11-04T07:34:16;18.27;;;11.23;;
50683;SDS011;36654;45.042;38.994;2022-11-04T07:36:42;27.52;;;14.93;;
50683;SDS011;36654;45.042;38.994;2022-11-04T07:39:07;24.40;;;11.57;;
50683;SDS011;36654;45.042;38.994;2022-11-04T07:41:33;20.05;;;12.38;;
50683;SDS011;36654;45.042;38.994;2022-11-04T07:43:59;18.17;;;11.32;;
50683;SDS011;36654;45.042;38.994;2022-11-04T07:46:26;23.55;;;12.15;;
50683;SDS011;36654;45.042;38.994;2022-11-04T07:48:55;25.58;;;12.40;;
50683;SDS011;36654;45.042;38.994;2022-11-04T07:51:22;25.02;;;12.57;;
50683;SDS011;36654;45.042;38.994;2022-11-04T07:53:47;22.55;;;12.15;;
50683;SDS011;36654;45.042;38.994;2022-11-04T07:56:13;22.08;;;12.18;;
50683;SDS011;36654;45.042;38.994;2022-11-04T07:58:39;23.73;;;12.63;;
50683;SDS011;36654;45.042;38.994;2022-11-04T08:01:07;20.05;;;11.02;;
50683;SDS011;36654;45.042;38.994;2022-11-04T08:03:35;18.88;;;10.82;;
50683;SDS011;36654;45.042;38.994;2022-11-04T08:06:01;22.67;;;12.25;;
50683;SDS011;36654;45.042;38.994;2022-11-04T08:08:28;18.83;;;10.50;;
50683;SDS011;36654;45.042;38.994;2022-11-04T08:10:56;20.05;;;11.00;;
50683;SDS011;36654;45.042;38.994;2022-11-04T08:13:27;23.60;;;12.52;;
50683;SDS011;36654;45.042;38.994;2022-11-04T08:15:54;19.88;;;10.93;;
50683;SDS011;36654;45.042;38.994;2022-11-04T08:18:20;17.70;;;10.30;;
50683;SDS011;36654;45.042;38.994;2022-11-04T08:20:46;21.17;;;10.32;;
50683;SDS011;36654;45.042;38.994;2022-11-04T08:23:14;16.40;;;10.57;;
50683;SDS011;36654;45.042;38.994;2022-11-04T08:25:40;18.52;;;10.18;;
50683;SDS011;36654;45.042;38.994;2022-11-04T08:28:06;17.20;;;9.77;;
50683;SDS011;36654;45.042;38.994;2022-11-04T08:30:31;14.25;;;8.32;;
50683;SDS011;36654;45.042;38.994;2022-11-04T08:32:57;15.32;;;8.18;;
50683;SDS011;36654;45.042;38.994;2022-11-04T08:35:23;17.48;;;8.02;;
50683;SDS011;36654;45.042;38.994;2022-11-04T08:37:50;10.93;;;7.75;;
50683;SDS011;36654;45.042;38.994;2022-11-04T08:40:15;13.15;;;7.68;;
50683;SDS011;36654;45.042;38.994;2022-11-04T08:42:41;16.13;;;8.30;;
50683;SDS011;36654;45.042;38.994;2022-11-04T08:45:07;13.55;;;7.15;;
50683;SDS011;36654;45.042;38.994;2022-11-04T08:47:33;13.57;;;7.60;;
50683;SDS011;36654;45.042;38.994;2022-11-04T08:49:58;12.45;;;6.88;;
50683;SDS011;36654;45.042;38.994;2022-11-04T08:52:24;11.55;;;7.68;;
50683;SDS011;36654;45.042;38.994;2022-11-04T08:54:52;13.20;;;7.38;;
50683;SDS011;36654;45.042;38.994;2022-11-04T08:59:44;14.63;;;7.13;;
50683;SDS011;36654;45.042;38.994;2022-11-04T09:02:12;12.48;;;7.78;;
50683;SDS011;36654;45.042;38.994;2022-11-04T09:04:38;11.90;;;6.88;;
50683;SDS011;36654;45.042;38.994;2022-11-04T09:07:04;15.98;;;6.85;;
50683;SDS011;36654;45.042;38.994;2022-11-04T09:09:30;12.32;;;7.03;;
50683;SDS011;36654;45.042;38.994;2022-11-04T09:11:56;10.30;;;6.80;;
50683;SDS011;36654;45.042;38.994;2022-11-04T09:14:22;14.30;;;7.38;;
50683;SDS011;36654;45.042;38.994;2022-11-04T09:16:47;13.65;;;6.40;;
50683;SDS011;36654;45.042;38.994;2022-11-04T09:19:13;15.32;;;7.78;;
50683;SDS011;36654;45.042;38.994;2022-11-04T09:21:39;14.38;;;6.70;;
50683;SDS011;36654;45.042;38.994;2022-11-04T09:24:05;13.25;;;7.32;;
50683;SDS011;36654;45.042;38.994;2022-11-04T09:26:32;15.68;;;7.32;;
50683;SDS011;36654;45.042;38.994;2022-11-04T09:28:58;16.02;;;7.20;;
50683;SDS011;36654;45.042;38.994;2022-11-04T09:31:25;11.60;;;6.78;;
50683;SDS011;36654;45.042;38.994;2022-11-04T09:33:53;11.13;;;6.93;;
50683;SDS011;36654;45.042;38.994;2022-11-04T09:36:19;11.63;;;6.80;;
50683;SDS011;36654;45.042;38.994;2022-11-04T09:38:46;11.00;;;6.57;;
50683;SDS011;36654;45.042;38.994;2022-11-04T09:46:23;14.20;;;7.07;;
50683;SDS011;36654;45.042;38.994;2022-11-04T09:48:50;12.52;;;7.32;;
50683;SDS011;36654;45.042;38.994;2022-11-04T09:51:19;16.85;;;9.00;;
50683;SDS011;36654;45.042;38.994;2022-11-04T09:53:50;15.35;;;8.95;;
50683;SDS011;36654;45.042;38.994;2022-11-04T09:56:22;14.13;;;8.77;;
50683;SDS011;36654;45.042;38.994;2022-11-04T09:58:56;16.98;;;8.52;;
50683;SDS011;36654;45.042;38.994;2022-11-04T10:04:01;15.52;;;8.20;;
50683;SDS011;36654;45.042;38.994;2022-11-04T10:20:12;13.13;;;6.32;;
50683;SDS011;36654;45.042;38.994;2022-11-04T10:25:21;11.68;;;6.45;;
50683;SDS011;36654;45.042;38.994;2022-11-04T10:27:49;12.77;;;8.00;;
50683;SDS011;36654;45.042;38.994;2022-11-04T10:30:17;13.50;;;7.47;;
50683;SDS011;36654;45.042;38.994;2022-11-04T10:35:30;15.60;;;7.47;;
50683;SDS011;36654;45.042;38.994;2022-11-04T10:38:10;13.63;;;6.93;;
50683;SDS011;36654;45.042;38.994;2022-11-04T10:40:51;11.32;;;7.43;;
50683;SDS011;36654;45.042;38.994;2022-11-04T10:43:31;14.57;;;7.80;;
50683;SDS011;36654;45.042;38.994;2022-11-04T10:46:05;16.42;;;8.10;;
50683;SDS011;36654;45.042;38.994;2022-11-04T10:48:38;13.30;;;6.88;;
50683;SDS011;36654;45.042;38.994;2022-11-04T10:51:13;10.90;;;7.45;;
50683;SDS011;36654;45.042;38.994;2022-11-04T10:53:46;12.25;;;7.03;;
50683;SDS011;36654;45.042;38.994;2022-11-04T10:56:24;16.50;;;8.13;;
50683;SDS011;36654;45.042;38.994;2022-11-04T10:58:59;12.48;;;7.22;;
50683;SDS011;36654;45.042;38.994;2022-11-04T11:01:39;12.75;;;8.30;;
50683;SDS011;36654;45.042;38.994;2022-11-04T11:06:49;13.25;;;7.95;;
50683;SDS011;36654;45.042;38.994;2022-11-04T11:11:59;14.35;;;8.00;;
50683;SDS011;36654;45.042;38.994;2022-11-04T11:14:38;14.55;;;8.45;;
50683;SDS011;36654;45.042;38.994;2022-11-04T11:19:55;16.30;;;9.50;;
50683;SDS011;36654;45.042;38.994;2022-11-04T11:25:19;15.65;;;9.15;;
50683;SDS011;36654;45.042;38.994;2022-11-04T11:27:55;17.63;;;9.73;;
50683;SDS011;36654;45.042;38.994;2022-11-04T11:35:50;16.23;;;9.50;;
50683;SDS011;36654;45.042;38.994;2022-11-04T11:40:49;20.55;;;8.70;;
50683;SDS011;36654;45.042;38.994;2022-11-04T11:43:24;22.40;;;10.57;;
50683;SDS011;36654;45.042;38.994;2022-11-04T11:45:54;20.25;;;9.90;;
50683;SDS011;36654;45.042;38.994;2022-11-04T11:50:56;18.17;;;9.80;;
50683;SDS011;36654;45.042;38.994;2022-11-04T11:53:24;24.48;;;10.85;;
50683;SDS011;36654;45.042;38.994;2022-11-04T11:58:47;17.88;;;10.07;;
50683;SDS011;36654;45.042;38.994;2022-11-04T12:01:19;17.75;;;9.82;;
50683;SDS011;36654;45.042;38.994;2022-11-04T12:03:52;13.10;;;8.45;;
50683;SDS011;36654;45.042;38.994;2022-11-04T12:11:33;16.00;;;9.25;;
50683;SDS011;36654;45.042;38.994;2022-11-04T12:14:45;16.55;;;8.85;;
50683;SDS011;36654;45.042;38.994;2022-11-04T12:30:12;20.05;;;10.18;;
50683;SDS011;36654;45.042;38.994;2022-11-04T12:41:14;14.52;;;8.07;;
50683;SDS011;36654;45.042;38.994;2022-11-04T12:47:25;17.90;;;9.02;;
50683;SDS011;36654;45.042;38.994;2022-11-04T13:01:04;20.27;;;8.40;;
50683;SDS011;36654;45.042;38.994;2022-11-04T13:03:43;15.55;;;7.55;;
50683;SDS011;36654;45.042;38.994;2022-11-04T13:06:19;14.20;;;9.20;;
50683;SDS011;36654;45.042;38.994;2022-11-04T13:12:16;11.23;;;7.32;;
50683;SDS011;36654;45.042;38.994;2022-11-04T13:14:54;12.88;;;7.05;;
50683;SDS011;36654;45.042;38.994;2022-11-04T13:17:37;15.77;;;7.22;;
50683;SDS011;36654;45.042;38.994;2022-11-04T13:20:29;12.57;;;6.72;;
50683;SDS011;36654;45.042;38.994;2022-11-04T13:23:11;18.10;;;7.55;;
50683;SDS011;36654;45.042;38.994;2022-11-04T13:25:43;14.70;;;6.75;;
50683;SDS011;36654;45.042;38.994;2022-11-04T13:28:11;16.50;;;8.57;;
50683;SDS011;36654;45.042;38.994;2022-11-04T13:31:15;13.80;;;7.63;;
50683;SDS011;36654;45.042;38.994;2022-11-04T13:39:25;16.90;;;8.10;;
50683;SDS011;36654;45.042;38.994;2022-11-04T13:44:37;12.50;;;7.30;;
50683;SDS011;36654;45.042;38.994;2022-11-04T13:47:12;11.63;;;6.43;;
50683;SDS011;36654;45.042;38.994;2022-11-04T13:49:46;12.27;;;7.68;;
50683;SDS011;36654;45.042;38.994;2022-11-04T13:52:14;15.23;;;7.68;;
50683;SDS011;36654;45.042;38.994;2022-11-04T13:57:15;12.40;;;7.00;;
50683;SDS011;36654;45.042;38.994;2022-11-04T14:02:46;12.02;;;6.28;;
50683;SDS011;36654;45.042;38.994;2022-11-04T14:18:44;13.60;;;5.97;;
50683;SDS011;36654;45.042;38.994;2022-11-04T14:21:15;11.45;;;8.20;;
50683;SDS011;36654;45.042;38.994;2022-11-04T14:23:44;17.67;;;9.90;;
50683;SDS011;36654;45.042;38.994;2022-11-04T14:26:13;11.50;;;6.82;;
50683;SDS011;36654;45.042;38.994;2022-11-04T14:28:42;10.77;;;6.75;;
50683;SDS011;36654;45.042;38.994;2022-11-04T14:31:14;11.75;;;7.82;;
50683;SDS011;36654;45.042;38.994;2022-11-04T14:33:59;13.20;;;7.00;;
50683;SDS011;36654;45.042;38.994;2022-11-04T14:38:55;13.38;;;6.85;;
50683;SDS011;36654;45.042;38.994;2022-11-04T14:41:57;12.68;;;7.20;;
50683;SDS011;36654;45.042;38.994;2022-11-04T14:44:33;11.52;;;6.32;;
50683;SDS011;36654;45.042;38.994;2022-11-04T14:47:19;11.82;;;6.78;;
50683;SDS011;36654;45.042;38.994;2022-11-04T14:52:32;12.63;;;6.82;;
50683;SDS011;36654;45.042;38.994;2022-11-04T14:55:05;14.20;;;7.40;;
50683;SDS011;36654;45.042;38.994;2022-11-04T14:57:41;16.70;;;7.88;;
50683;SDS011;36654;45.042;38.994;2022-11-04T15:02:59;11.43;;;7.65;;
50683;SDS011;36654;45.042;38.994;2022-11-04T15:05:30;9.93;;;7.03;;
50683;SDS011;36654;45.042;38.994;2022-11-04T15:08:00;29.00;;;17.50;;
50683;SDS011;36654;45.042;38.994;2022-11-04T15:10:27;18.65;;;10.57;;
50683;SDS011;36654;45.042;38.994;2022-11-04T15:12:57;16.52;;;8.65;;
50683;SDS011;36654;45.042;38.994;2022-11-04T15:15:42;11.45;;;6.78;;
50683;SDS011;36654;45.042;38.994;2022-11-04T15:18:27;14.95;;;7.43;;
50683;SDS011;36654;45.042;38.994;2022-11-04T15:20:55;21.83;;;12.75;;
50683;SDS011;36654;45.042;38.994;2022-11-04T15:23:30;30.10;;;20.85;;
50683;SDS011;36654;45.042;38.994;2022-11-04T15:26:02;17.05;;;10.48;;
50683;SDS011;36654;45.042;38.994;2022-11-04T15:28:30;15.68;;;9.15;;
50683;SDS011;36654;45.042;38.994;2022-11-04T15:31:07;15.30;;;9.73;;
50683;SDS011;36654;45.042;38.994;2022-11-04T15:33:44;12.63;;;7.40;;
50683;SDS011;36654;45.042;38.994;2022-11-04T15:36:17;15.73;;;9.38;;
50683;SDS011;36654;45.042;38.994;2022-11-04T15:39:20;15.30;;;8.73;;
50683;SDS011;36654;45.042;38.994;2022-11-04T15:41:40;16.33;;;9.82;;
50683;SDS011;36654;45.042;38.994;2022-11-04T15:44:33;17.35;;;10.45;;
50683;SDS011;36654;45.042;38.994;2022-11-04T15:47:02;15.15;;;9.40;;
50683;SDS011;36654;45.042;38.994;2022-11-04T15:49:46;22.23;;;11.90;;
50683;SDS011;36654;45.042;38.994;2022-11-04T15:52:23;20.35;;;10.95;;
50683;SDS011;36654;45.042;38.994;2022-11-04T15:54:55;19.00;;;10.20;;
50683;SDS011;36654;45.042;38.994;2022-11-04T15:57:37;18.80;;;10.93;;
50683;SDS011;36654;45.042;38.994;2022-11-04T16:02:31;20.27;;;11.43;;
50683;SDS011;36654;45.042;38.994;2022-11-04T16:05:15;22.70;;;11.73;;
50683;SDS011;36654;45.042;38.994;2022-11-04T16:07:50;18.80;;;10.75;;
50683;SDS011;36654;45.042;38.994;2022-11-04T16:10:24;20.80;;;11.45;;
50683;SDS011;36654;45.042;38.994;2022-11-04T16:12:57;22.42;;;12.15;;
50683;SDS011;36654;45.042;38.994;2022-11-04T16:17:58;20.42;;;11.63;;
50683;SDS011;36654;45.042;38.994;2022-11-04T16:20:25;18.83;;;10.48;;
50683;SDS011;36654;45.042;38.994;2022-11-04T16:22:54;21.83;;;11.60;;
50683;SDS011;36654;45.042;38.994;2022-11-04T16:25:22;18.15;;;11.60;;
50683;SDS011;36654;45.042;38.994;2022-11-04T16:27:49;24.80;;;11.57;;
50683;SDS011;36654;45.042;38.994;2022-11-04T16:35:17;21.38;;;11.30;;
50683;SDS011;36654;45.042;38.994;2022-11-04T16:37:46;18.35;;;11.43;;
50683;SDS011;36654;45.042;38.994;2022-11-04T16:40:12;20.85;;;11.48;;
50683;SDS011;36654;45.042;38.994;2022-11-04T16:42:39;24.25;;;13.82;;
50683;SDS011;36654;45.042;38.994;2022-11-04T16:45:05;25.58;;;12.90;;
50683;SDS011;36654;45.042;38.994;2022-11-04T16:47:35;23.35;;;12.88;;
50683;SDS011;36654;45.042;38.994;2022-11-04T16:50:11;27.58;;;14.40;;
50683;SDS011;36654;45.042;38.994;2022-11-04T16:52:39;26.08;;;13.52;;
50683;SDS011;36654;45.042;38.994;2022-11-04T16:55:05;21.98;;;13.38;;
50683;SDS011;36654;45.042;38.994;2022-11-04T16:57:31;22.27;;;12.15;;
50683;SDS011;36654;45.042;38.994;2022-11-04T16:59:57;21.98;;;11.68;;
50683;SDS011;36654;45.042;38.994;2022-11-04T17:02:26;19.05;;;11.13;;
50683;SDS011;36654;45.042;38.994;2022-11-04T17:05:01;20.05;;;10.82;;
50683;SDS011;36654;45.042;38.994;2022-11-04T17:07:29;23.00;;;12.27;;
50683;SDS011;36654;45.042;38.994;2022-11-04T17:09:55;24.63;;;12.52;;
50683;SDS011;36654;45.042;38.994;2022-11-04T17:12:20;22.30;;;11.40;;
50683;SDS011;36654;45.042;38.994;2022-11-04T17:14:46;21.13;;;12.32;;
50683;SDS011;36654;45.042;38.994;2022-11-04T17:17:11;24.42;;;12.85;;
50683;SDS011;36654;45.042;38.994;2022-11-04T17:19:37;28.25;;;14.82;;
50683;SDS011;36654;45.042;38.994;2022-11-04T17:22:04;27.05;;;14.20;;
50683;SDS011;36654;45.042;38.994;2022-11-04T17:24:31;25.95;;;13.93;;
50683;SDS011;36654;45.042;38.994;2022-11-04T17:26:57;28.20;;;15.05;;
50683;SDS011;36654;45.042;38.994;2022-11-04T17:29:23;26.92;;;14.77;;
50683;SDS011;36654;45.042;38.994;2022-11-04T17:31:48;32.28;;;15.57;;
50683;SDS011;36654;45.042;38.994;2022-11-04T17:34:16;26.40;;;15.70;;
50683;SDS011;36654;45.042;38.994;2022-11-04T17:36:42;28.88;;;15.68;;
50683;SDS011;36654;45.042;38.994;2022-11-04T17:39:08;32.88;;;16.83;;
50683;SDS011;36654;45.042;38.994;2022-11-04T17:41:33;31.35;;;16.45;;
50683;SDS011;36654;45.042;38.994;2022-11-04T17:44:17;31.15;;;16.42;;
50683;SDS011;36654;45.042;38.994;2022-11-04T17:46:43;33.45;;;16.73;;
50683;SDS011;36654;45.042;38.994;2022-11-04T17:49:16;34.80;;;17.30;;